createdAt,value
2022-10-18T00:00:54.312Z,3.78
2022-10-18T00:01:51.042Z,4.35
2022-10-18T00:02:47.701Z,3.20
2022-10-18T00:03:44.394Z,4.38
2022-10-18T00:04:41.003Z,4.32
2022-10-18T00:05:37.680Z,3.70
2022-10-18T00:06:37.672Z,4.03
2022-10-18T00:07:39.215Z,6.65
2022-10-18T00:08:38.376Z,3.60
2022-10-18T00:09:35.972Z,7.45
2022-10-18T00:10:32.584Z,5.80
2022-10-18T00:11:30.922Z,5.32
2022-10-18T00:12:27.558Z,4.03
2022-10-18T00:13:24.647Z,6.50
2022-10-18T00:14:21.647Z,4.60
2022-10-18T00:15:18.891Z,3.85
2022-10-18T00:16:18.046Z,4.85
2022-10-18T00:17:14.594Z,6.20
2022-10-18T00:18:11.184Z,8.02
2022-10-18T00:19:07.731Z,7.95
2022-10-18T00:20:05.771Z,5.07
2022-10-18T00:21:08.569Z,8.98
2022-10-18T00:22:05.273Z,8.30
2022-10-18T00:23:01.958Z,4.43
2022-10-18T00:23:58.545Z,4.97
2022-10-18T00:24:55.137Z,4.20
2022-10-18T00:26:12.155Z,9.27
2022-10-18T00:27:08.829Z,7.20
2022-10-18T00:28:05.452Z,3.97
2022-10-18T00:29:04.713Z,7.05
2022-10-18T00:30:01.349Z,4.38
2022-10-18T00:30:58.157Z,6.50
2022-10-18T00:31:54.748Z,4.35
2022-10-18T00:32:51.316Z,4.68
2022-10-18T00:33:51.410Z,5.32
2022-10-18T00:34:48.145Z,5.75
2022-10-18T00:35:44.708Z,5.05
2022-10-18T00:36:42.195Z,5.95
2022-10-18T00:37:38.815Z,4.97
2022-10-18T00:38:35.759Z,8.52
2022-10-18T00:39:32.492Z,3.42
2022-10-18T00:40:29.048Z,4.80
2022-10-18T00:41:29.654Z,7.88
2022-10-18T00:42:31.715Z,6.55
2022-10-18T00:43:28.511Z,3.78
2022-10-18T00:44:25.025Z,6.35
2022-10-18T00:45:25.422Z,5.63
2022-10-18T00:46:22.150Z,6.25
2022-10-18T00:47:19.728Z,10.35
2022-10-18T00:48:19.038Z,8.52
2022-10-18T00:49:19.147Z,8.98
2022-10-18T00:50:16.102Z,6.32
2022-10-18T00:51:13.367Z,4.85
2022-10-18T00:52:15.393Z,5.00
2022-10-18T00:53:17.549Z,6.82
2022-10-18T00:54:16.202Z,4.13
2022-10-18T00:55:13.267Z,3.70
2022-10-18T00:56:09.948Z,6.68
2022-10-18T00:57:06.998Z,12.48
2022-10-18T00:58:04.984Z,7.63
2022-10-18T00:59:01.992Z,7.13
2022-10-18T00:59:58.728Z,9.30
2022-10-18T01:00:55.333Z,5.20
2022-10-18T01:01:52.076Z,4.50
2022-10-18T01:02:48.822Z,6.32
2022-10-18T01:03:45.636Z,7.30
2022-10-18T01:04:42.337Z,5.68
2022-10-18T01:05:44.934Z,5.10
2022-10-18T01:07:07.768Z,5.10
2022-10-18T01:08:36.406Z,6.87
2022-10-18T01:09:56.257Z,6.90
2022-10-18T01:11:05.080Z,7.63
2022-10-18T01:12:18.102Z,5.68
2022-10-18T01:13:29.084Z,9.02
2022-10-18T01:14:51.850Z,7.05
2022-10-18T01:16:17.465Z,6.13
2022-10-18T01:17:29.598Z,13.27
2022-10-18T01:18:29.093Z,7.80
2022-10-18T01:20:03.428Z,5.03
2022-10-18T01:21:23.153Z,10.10
2022-10-18T01:22:28.081Z,9.30
2022-10-18T01:23:59.854Z,5.57
2022-10-18T01:25:06.324Z,7.75
2022-10-18T01:26:25.476Z,5.55
2022-10-18T01:27:40.638Z,11.93
2022-10-18T01:29:14.644Z,6.68
2022-10-18T01:30:14.010Z,6.68
2022-10-18T01:31:33.090Z,5.35
2022-10-18T01:32:54.370Z,8.73
2022-10-18T01:33:56.745Z,7.95
2022-10-18T01:36:00.104Z,6.40
2022-10-18T01:36:57.658Z,5.45
2022-10-18T01:37:59.179Z,5.07
2022-10-18T01:38:59.197Z,7.45
2022-10-18T01:39:58.741Z,7.45
2022-10-18T01:40:57.927Z,10.27
2022-10-18T01:41:56.512Z,7.78
2022-10-18T01:42:53.190Z,8.85
2022-10-18T01:43:56.079Z,12.30
2022-10-18T01:44:54.559Z,15.82
2022-10-18T01:45:53.967Z,7.53
2022-10-18T01:46:54.219Z,7.15
2022-10-18T01:47:52.391Z,9.93
2022-10-18T01:48:49.940Z,7.38
2022-10-18T01:49:46.882Z,6.47
2022-10-18T01:50:43.538Z,8.13
2022-10-18T01:51:40.167Z,5.03
2022-10-18T01:52:48.310Z,5.80
2022-10-18T01:53:44.899Z,5.82
2022-10-18T01:54:50.954Z,19.13
2022-10-18T01:55:57.652Z,17.73
2022-10-18T01:57:24.703Z,31.65
2022-10-18T01:58:30.477Z,42.00
2022-10-18T01:59:33.165Z,57.75
2022-10-18T02:00:42.491Z,28.40
2022-10-18T02:02:02.919Z,22.75
2022-10-18T02:03:09.289Z,25.33
2022-10-18T02:04:19.401Z,24.27
2022-10-18T02:05:32.201Z,32.03
2022-10-18T02:06:38.308Z,23.67
2022-10-18T02:08:12.317Z,25.75
2022-10-18T02:09:28.215Z,20.60
2022-10-18T02:10:46.391Z,13.60
2022-10-18T02:11:45.129Z,10.48
2022-10-18T02:12:44.544Z,13.52
2022-10-18T02:13:47.279Z,11.85
2022-10-18T02:14:45.624Z,7.35
2022-10-18T02:15:47.211Z,9.98
2022-10-18T02:16:49.402Z,8.33
2022-10-18T02:17:47.134Z,10.50
2022-10-18T02:18:55.656Z,8.10
2022-10-18T02:19:55.786Z,6.45
2022-10-18T02:20:54.525Z,7.07
2022-10-18T02:21:52.954Z,8.68
2022-10-18T02:22:51.136Z,6.28
2022-10-18T02:23:49.242Z,7.80
2022-10-18T02:24:51.132Z,7.18
2022-10-18T02:25:47.981Z,8.23
2022-10-18T02:26:44.849Z,6.78
2022-10-18T02:27:41.606Z,5.18
2022-10-18T02:28:38.972Z,5.30
2022-10-18T02:29:36.560Z,6.75
2022-10-18T02:30:50.036Z,11.40
2022-10-18T02:31:49.565Z,29.92
2022-10-18T02:32:57.444Z,25.48
2022-10-18T02:33:58.594Z,21.85
2022-10-18T02:35:04.945Z,21.75
2022-10-18T02:36:09.663Z,20.02
2022-10-18T02:37:06.301Z,15.40
2022-10-18T02:38:04.495Z,15.38
2022-10-18T02:39:06.714Z,13.95
2022-10-18T02:40:05.729Z,9.68
2022-10-18T02:41:02.348Z,5.13
2022-10-18T02:41:59.809Z,6.32
2022-10-18T02:42:57.678Z,5.85
2022-10-18T02:43:57.423Z,5.35
2022-10-18T02:44:54.601Z,4.43
2022-10-18T02:45:51.622Z,5.72
2022-10-18T02:46:48.657Z,4.43
2022-10-18T02:47:45.457Z,7.35
2022-10-18T02:48:42.002Z,6.72
2022-10-18T02:49:38.568Z,11.60
2022-10-18T02:50:35.137Z,6.60
2022-10-18T02:51:32.104Z,5.25
2022-10-18T02:52:28.666Z,5.15
2022-10-18T02:53:25.217Z,4.60
2022-10-18T02:54:22.990Z,5.95
2022-10-18T02:55:19.764Z,5.97
2022-10-18T02:56:16.787Z,9.95
2022-10-18T02:57:13.345Z,7.82
2022-10-18T02:58:09.988Z,6.05
2022-10-18T02:59:07.544Z,5.63
2022-10-18T03:00:05.730Z,7.13
2022-10-18T03:01:02.315Z,8.13
2022-10-18T03:01:58.905Z,5.80
2022-10-18T03:02:55.571Z,11.90
2022-10-18T03:03:52.198Z,4.63
2022-10-18T03:04:48.785Z,7.15
2022-10-18T03:05:45.354Z,4.80
2022-10-18T03:06:42.003Z,7.88
2022-10-18T03:07:38.705Z,4.70
2022-10-18T03:08:36.312Z,7.97
2022-10-18T03:09:33.005Z,11.63
2022-10-18T03:10:29.574Z,28.67
2022-10-18T03:11:26.131Z,19.23
2022-10-18T03:12:22.709Z,19.55
2022-10-18T03:13:19.405Z,18.92
2022-10-18T03:14:16.011Z,16.75
2022-10-18T03:15:12.593Z,11.57
2022-10-18T03:16:09.285Z,5.18
2022-10-18T03:17:05.844Z,11.05
2022-10-18T03:18:02.483Z,7.82
2022-10-18T03:18:59.072Z,5.45
2022-10-18T03:19:55.690Z,8.48
2022-10-18T03:20:52.305Z,6.63
2022-10-18T03:21:49.023Z,6.38
2022-10-18T03:22:45.577Z,7.53
2022-10-18T03:23:42.352Z,5.82
2022-10-18T03:24:38.920Z,8.27
2022-10-18T03:25:35.560Z,9.95
2022-10-18T03:26:32.214Z,7.10
2022-10-18T03:27:28.916Z,8.38
2022-10-18T03:28:25.679Z,7.82
2022-10-18T03:29:22.321Z,5.55
2022-10-18T03:30:18.947Z,4.43
2022-10-18T03:31:15.550Z,6.88
2022-10-18T03:32:12.112Z,6.40
2022-10-18T03:33:08.707Z,4.47
2022-10-18T03:34:05.338Z,4.70
2022-10-18T03:35:01.882Z,5.13
2022-10-18T03:35:58.544Z,11.73
2022-10-18T03:36:55.122Z,9.25
2022-10-18T03:37:51.710Z,7.32
2022-10-18T03:38:48.301Z,9.40
2022-10-18T03:39:44.832Z,8.15
2022-10-18T03:40:41.483Z,6.35
2022-10-18T03:41:38.079Z,7.38
2022-10-18T03:42:34.899Z,9.85
2022-10-18T03:43:31.942Z,7.15
2022-10-18T03:44:28.615Z,6.07
2022-10-18T03:45:28.976Z,7.05
2022-10-18T03:46:27.897Z,11.73
2022-10-18T03:47:24.539Z,7.25
2022-10-18T03:48:21.205Z,6.32
2022-10-18T03:49:17.784Z,6.07
2022-10-18T03:50:14.481Z,7.57
2022-10-18T03:51:11.182Z,7.13
2022-10-18T03:52:07.788Z,9.40
2022-10-18T03:53:04.499Z,12.40
2022-10-18T03:54:01.136Z,10.93
2022-10-18T03:54:57.739Z,7.82
2022-10-18T03:55:55.331Z,4.70
2022-10-18T03:56:51.877Z,5.72
2022-10-18T03:57:48.474Z,4.97
2022-10-18T03:58:45.052Z,4.40
2022-10-18T03:59:41.645Z,5.50
2022-10-18T04:00:38.204Z,6.43
2022-10-18T04:01:34.841Z,4.90
2022-10-18T04:02:32.010Z,7.57
2022-10-18T04:03:28.879Z,5.88
2022-10-18T04:04:25.450Z,6.47
2022-10-18T04:05:24.062Z,4.45
2022-10-18T04:06:20.699Z,9.35
2022-10-18T04:07:17.265Z,7.10
2022-10-18T04:08:14.745Z,9.73
2022-10-18T04:09:11.416Z,5.55
2022-10-18T04:10:08.469Z,9.38
2022-10-18T04:11:08.406Z,6.18
2022-10-18T04:12:05.222Z,10.80
2022-10-18T04:13:01.794Z,6.88
2022-10-18T04:13:58.423Z,5.60
2022-10-18T04:14:55.702Z,6.55
2022-10-18T04:15:52.374Z,8.20
2022-10-18T04:16:49.014Z,7.97
2022-10-18T04:17:45.694Z,12.05
2022-10-18T04:18:42.927Z,8.68
2022-10-18T04:19:41.016Z,4.43
2022-10-18T04:20:37.572Z,11.43
2022-10-18T04:21:34.209Z,7.28
2022-10-18T04:22:30.807Z,8.43
2022-10-18T04:23:27.386Z,6.13
2022-10-18T04:24:24.052Z,9.95
2022-10-18T04:25:22.139Z,4.63
2022-10-18T04:26:18.774Z,7.97
2022-10-18T04:27:15.373Z,10.25
2022-10-18T04:28:11.936Z,12.00
2022-10-18T04:29:08.562Z,14.60
2022-10-18T04:30:05.907Z,7.50
2022-10-18T04:31:02.481Z,8.50
2022-10-18T04:31:59.418Z,12.35
2022-10-18T04:32:55.967Z,11.10
2022-10-18T04:33:52.533Z,7.28
2022-10-18T04:34:49.162Z,8.45
2022-10-18T04:35:46.488Z,7.85
2022-10-18T04:36:43.104Z,8.63
2022-10-18T04:37:39.700Z,13.82
2022-10-18T04:38:36.365Z,9.15
2022-10-18T04:39:32.928Z,9.00
2022-10-18T04:40:29.510Z,7.60
2022-10-18T04:41:26.228Z,4.25
2022-10-18T04:42:23.316Z,4.10
2022-10-18T04:43:19.994Z,6.10
2022-10-18T04:44:16.547Z,5.70
2022-10-18T04:45:13.419Z,7.63
2022-10-18T04:46:10.031Z,4.82
2022-10-18T04:47:06.694Z,5.90
2022-10-18T04:48:03.550Z,5.38
2022-10-18T04:49:01.626Z,8.50
2022-10-18T04:49:58.193Z,8.50
2022-10-18T04:50:54.857Z,6.90
2022-10-18T04:51:51.423Z,13.20
2022-10-18T04:52:47.986Z,7.25
2022-10-18T04:53:44.535Z,6.60
2022-10-18T04:54:41.156Z,6.15
2022-10-18T04:55:37.727Z,7.50
2022-10-18T04:56:34.291Z,8.38
2022-10-18T04:57:31.158Z,9.75
2022-10-18T04:58:27.901Z,22.83
2022-10-18T04:59:24.533Z,16.23
2022-10-18T05:00:21.206Z,11.13
2022-10-18T05:01:19.043Z,11.05
2022-10-18T05:02:15.659Z,10.27
2022-10-18T05:03:13.930Z,10.85
2022-10-18T05:04:10.503Z,12.05
2022-10-18T05:05:10.317Z,9.32
2022-10-18T05:06:10.468Z,10.52
2022-10-18T05:07:07.164Z,12.23
2022-10-18T05:08:04.380Z,11.63
2022-10-18T05:09:00.933Z,8.23
2022-10-18T05:09:57.574Z,7.90
2022-10-18T05:10:54.368Z,10.15
2022-10-18T05:11:51.140Z,8.50
2022-10-18T05:12:47.861Z,9.38
2022-10-18T05:13:47.194Z,6.72
2022-10-18T05:14:46.658Z,5.15
2022-10-18T05:15:43.250Z,9.88
2022-10-18T05:16:39.849Z,13.13
2022-10-18T05:17:36.595Z,8.60
2022-10-18T05:18:33.185Z,5.68
2022-10-18T05:19:29.805Z,6.03
2022-10-18T05:20:26.381Z,7.32
2022-10-18T05:21:22.931Z,5.85
2022-10-18T05:22:19.502Z,6.85
2022-10-18T05:23:16.063Z,7.63
2022-10-18T05:24:12.874Z,7.85
2022-10-18T05:25:09.816Z,8.02
2022-10-18T05:26:07.834Z,8.23
2022-10-18T05:27:04.408Z,9.45
2022-10-18T05:28:06.290Z,7.20
2022-10-18T05:29:07.747Z,8.40
2022-10-18T05:30:05.776Z,7.20
2022-10-18T05:31:04.757Z,4.88
2022-10-18T05:32:01.322Z,6.68
2022-10-18T05:32:57.891Z,5.45
2022-10-18T05:33:54.490Z,4.15
2022-10-18T05:34:51.110Z,2.85
2022-10-18T05:35:47.666Z,4.45
2022-10-18T05:36:44.268Z,3.47
2022-10-18T05:37:40.870Z,6.90
2022-10-18T05:38:42.972Z,6.22
2022-10-18T05:40:38.844Z,4.22
2022-10-18T05:41:36.750Z,3.38
2022-10-18T05:42:33.607Z,4.57
2022-10-18T05:43:30.426Z,5.55
2022-10-18T05:44:27.051Z,5.15
2022-10-18T05:45:23.624Z,6.70
2022-10-18T05:46:20.341Z,7.57
2022-10-18T05:47:16.931Z,8.13
2022-10-18T05:48:13.702Z,4.22
2022-10-18T05:49:12.995Z,6.43
2022-10-18T05:50:09.847Z,2.65
2022-10-18T05:51:06.447Z,5.97
2022-10-18T05:52:03.044Z,4.65
2022-10-18T05:53:11.844Z,2.97
2022-10-18T05:54:14.436Z,2.97
2022-10-18T05:55:11.045Z,4.00
2022-10-18T05:56:07.964Z,2.83
2022-10-18T05:57:04.530Z,3.10
2022-10-18T05:58:01.730Z,4.82
2022-10-18T05:58:58.327Z,4.10
2022-10-18T05:59:54.960Z,4.30
2022-10-18T06:00:52.011Z,3.33
2022-10-18T06:01:48.567Z,3.88
2022-10-18T06:02:45.119Z,4.65
2022-10-18T06:03:41.774Z,3.38
2022-10-18T06:04:38.329Z,2.80
2022-10-18T06:05:34.962Z,3.97
2022-10-18T06:06:32.850Z,3.40
2022-10-18T06:07:29.548Z,6.50
2022-10-18T06:08:26.380Z,2.97
2022-10-18T06:09:23.097Z,3.90
2022-10-18T06:10:19.886Z,7.97
2022-10-18T06:11:18.155Z,5.10
2022-10-18T06:12:14.803Z,7.15
2022-10-18T06:13:11.390Z,18.15
2022-10-18T06:14:08.327Z,6.80
2022-10-18T06:15:05.434Z,5.75
2022-10-18T06:16:02.124Z,4.93
2022-10-18T06:16:58.674Z,4.88
2022-10-18T06:17:55.314Z,5.85
2022-10-18T06:18:54.166Z,4.38
2022-10-18T06:19:50.809Z,4.90
2022-10-18T06:20:47.587Z,5.35
2022-10-18T06:21:44.444Z,6.97
2022-10-18T06:22:40.994Z,6.20
2022-10-18T06:23:37.575Z,4.63
2022-10-18T06:24:34.109Z,8.35
2022-10-18T06:25:30.786Z,4.38
2022-10-18T06:26:28.333Z,4.13
2022-10-18T06:27:24.934Z,5.43
2022-10-18T06:28:21.514Z,3.95
2022-10-18T06:29:18.154Z,7.43
2022-10-18T06:30:15.630Z,5.53
2022-10-18T06:31:13.795Z,4.80
2022-10-18T06:32:10.376Z,4.97
2022-10-18T06:33:07.106Z,6.53
2022-10-18T06:34:04.455Z,5.20
2022-10-18T06:35:01.129Z,5.75
2022-10-18T06:36:24.120Z,6.57
2022-10-18T06:37:20.750Z,6.38
2022-10-18T06:38:17.309Z,5.47
2022-10-18T06:39:13.951Z,5.40
2022-10-18T06:40:11.147Z,3.65
2022-10-18T06:41:08.855Z,3.95
2022-10-18T06:42:05.440Z,3.70
2022-10-18T06:43:19.480Z,8.77
2022-10-18T06:44:17.894Z,4.38
2022-10-18T06:45:16.240Z,5.15
2022-10-18T06:46:12.822Z,7.68
2022-10-18T06:47:09.533Z,6.85
2022-10-18T06:48:06.616Z,4.38
2022-10-18T06:49:03.204Z,6.80
2022-10-18T06:49:59.933Z,6.68
2022-10-18T06:50:59.064Z,5.35
2022-10-18T06:51:55.674Z,8.80
2022-10-18T06:52:52.655Z,3.72
2022-10-18T06:53:59.606Z,4.20
2022-10-18T06:55:09.157Z,5.38
2022-10-18T06:56:08.346Z,7.72
2022-10-18T06:57:04.935Z,5.57
2022-10-18T06:58:01.844Z,4.40
2022-10-18T06:59:59.896Z,4.75
2022-10-18T07:00:57.047Z,5.55
2022-10-18T07:01:53.748Z,5.63
2022-10-18T07:02:51.814Z,6.55
2022-10-18T07:03:51.874Z,8.88
2022-10-18T07:04:48.462Z,7.35
2022-10-18T07:05:44.990Z,4.78
2022-10-18T07:06:41.623Z,5.07
2022-10-18T07:07:38.353Z,7.63
2022-10-18T07:08:35.197Z,5.85
2022-10-18T07:09:31.784Z,7.30
2022-10-18T07:10:28.448Z,7.53
2022-10-18T07:11:27.090Z,6.53
2022-10-18T07:12:23.708Z,5.22
2022-10-18T07:13:32.532Z,6.18
2022-10-18T07:14:29.716Z,5.30
2022-10-18T07:15:26.567Z,4.15
2022-10-18T07:16:23.223Z,4.85
2022-10-18T07:17:19.771Z,4.15
2022-10-18T07:18:16.783Z,10.20
2022-10-18T07:19:14.979Z,7.00
2022-10-18T07:20:12.370Z,4.90
2022-10-18T07:21:13.374Z,4.57
2022-10-18T07:22:09.940Z,7.45
2022-10-18T07:23:08.642Z,8.13
2022-10-18T07:24:05.437Z,7.10
2022-10-18T07:25:02.004Z,10.85
2022-10-18T07:25:58.746Z,6.05
2022-10-18T07:26:55.416Z,9.98
2022-10-18T07:27:52.134Z,9.40
2022-10-18T07:28:52.238Z,8.90
2022-10-18T07:29:49.728Z,5.95
2022-10-18T07:30:46.383Z,10.02
2022-10-18T07:31:43.115Z,8.48
2022-10-18T07:32:39.726Z,10.65
2022-10-18T07:33:40.069Z,9.57
2022-10-18T07:34:36.692Z,8.90
2022-10-18T07:35:33.275Z,7.47
2022-10-18T07:36:30.709Z,11.27
2022-10-18T07:37:29.422Z,8.88
2022-10-18T07:38:26.811Z,8.85
2022-10-18T07:39:23.528Z,6.95
2022-10-18T07:40:20.127Z,7.68
2022-10-18T07:41:16.712Z,8.27
2022-10-18T07:42:13.299Z,8.75
2022-10-18T07:43:12.138Z,7.68
2022-10-18T07:44:09.229Z,9.80
2022-10-18T07:45:06.149Z,9.38
2022-10-18T07:46:05.434Z,10.32
2022-10-18T07:47:02.068Z,9.52
2022-10-18T07:47:58.922Z,7.13
2022-10-18T07:48:56.366Z,8.02
2022-10-18T07:49:52.925Z,5.93
2022-10-18T07:50:49.802Z,5.75
2022-10-18T07:51:46.529Z,8.02
2022-10-18T07:52:43.087Z,10.27
2022-10-18T07:53:39.895Z,8.48
2022-10-18T07:54:36.541Z,10.00
2022-10-18T07:55:33.611Z,7.93
2022-10-18T07:56:30.312Z,10.55
2022-10-18T07:57:26.901Z,6.50
2022-10-18T07:58:23.503Z,8.57
2022-10-18T07:59:20.037Z,7.25
2022-10-18T08:00:16.729Z,7.13
2022-10-18T08:01:14.998Z,6.25
2022-10-18T08:02:11.769Z,8.38
2022-10-18T08:03:08.429Z,12.00
2022-10-18T08:04:07.921Z,7.05
2022-10-18T08:05:06.549Z,7.53
2022-10-18T08:06:05.044Z,9.18
2022-10-18T08:07:01.623Z,7.88
2022-10-18T08:07:58.187Z,17.70
2022-10-18T08:08:54.877Z,10.48
2022-10-18T08:09:51.432Z,9.15
2022-10-18T08:10:48.540Z,6.97
2022-10-18T08:11:45.109Z,8.05
2022-10-18T08:12:41.892Z,11.88
2022-10-18T08:13:38.575Z,11.73
2022-10-18T08:14:35.135Z,13.20
2022-10-18T08:15:31.775Z,18.75
2022-10-18T08:17:29.188Z,8.00
2022-10-18T08:18:25.926Z,8.27
2022-10-18T08:19:22.605Z,9.93
2022-10-18T08:20:30.281Z,9.38
2022-10-18T08:21:27.648Z,12.45
2022-10-18T08:22:24.306Z,10.30
2022-10-18T08:23:20.891Z,10.35
2022-10-18T08:24:17.536Z,13.60
2022-10-18T08:25:14.144Z,9.73
2022-10-18T08:26:14.050Z,11.55
2022-10-18T08:27:10.614Z,10.43
2022-10-18T08:28:07.784Z,11.00
2022-10-18T08:29:21.143Z,10.65
2022-10-18T08:30:19.275Z,8.73
2022-10-18T08:31:18.241Z,12.57
2022-10-18T08:32:14.851Z,9.18
2022-10-18T08:33:11.480Z,10.30
2022-10-18T08:34:08.068Z,8.75
2022-10-18T08:35:06.952Z,9.05
2022-10-18T08:36:08.640Z,9.57
2022-10-18T08:37:05.482Z,11.07
2022-10-18T08:38:02.342Z,10.30
2022-10-18T08:38:58.925Z,9.20
2022-10-18T08:39:55.511Z,8.43
2022-10-18T08:40:52.310Z,6.70
2022-10-18T08:41:54.885Z,7.88
2022-10-18T08:43:00.679Z,8.48
2022-10-18T08:44:10.638Z,7.95
2022-10-18T08:45:17.974Z,6.75
2022-10-18T08:46:27.704Z,7.70
2022-10-18T08:47:35.185Z,6.30
2022-10-18T08:48:48.737Z,8.70
2022-10-18T08:49:50.628Z,6.10
2022-10-18T08:50:48.488Z,8.75
2022-10-18T08:51:50.875Z,9.38
2022-10-18T08:54:16.772Z,8.05
2022-10-18T08:55:20.140Z,9.63
2022-10-18T08:56:21.702Z,6.68
2022-10-18T08:57:18.657Z,11.63
2022-10-18T08:58:15.340Z,9.00
2022-10-18T08:59:13.433Z,7.82
2022-10-18T09:00:17.174Z,7.13
2022-10-18T09:01:37.629Z,4.47
2022-10-18T09:02:47.460Z,7.03
2022-10-18T09:04:27.226Z,5.35
2022-10-18T09:05:52.627Z,5.78
2022-10-18T09:07:14.047Z,6.47
2022-10-18T09:08:32.278Z,7.75
2022-10-18T09:09:45.152Z,7.95
2022-10-18T09:10:55.887Z,5.13
2022-10-18T09:12:14.368Z,8.32
2022-10-18T09:13:44.870Z,5.05
2022-10-18T09:14:51.793Z,10.05
2022-10-18T09:15:59.942Z,7.70
2022-10-18T09:17:11.299Z,5.80
2022-10-18T09:18:36.343Z,6.15
2022-10-18T09:19:47.936Z,6.07
2022-10-18T09:20:49.448Z,6.90
2022-10-18T09:21:52.996Z,6.22
2022-10-18T09:22:59.827Z,7.80
2022-10-18T09:24:14.306Z,8.07
2022-10-18T09:25:19.759Z,6.03
2022-10-18T09:26:21.591Z,6.55
2022-10-18T09:27:20.773Z,11.55
2022-10-18T09:28:52.394Z,5.93
2022-10-18T09:29:54.756Z,4.43
2022-10-18T09:31:25.598Z,5.05
2022-10-18T09:32:29.968Z,7.97
2022-10-18T09:33:48.484Z,6.65
2022-10-18T09:34:56.996Z,11.15
2022-10-18T09:36:00.409Z,7.13
2022-10-18T09:36:57.480Z,8.52
2022-10-18T09:38:03.445Z,8.00
2022-10-18T09:39:05.267Z,7.88
2022-10-18T09:40:21.612Z,5.80
2022-10-18T09:41:34.627Z,5.45
2022-10-18T09:42:42.240Z,5.75
2022-10-18T09:43:43.815Z,6.15
2022-10-18T09:44:47.535Z,6.25
2022-10-18T09:45:45.864Z,5.38
2022-10-18T09:46:47.898Z,19.38
2022-10-18T09:47:49.971Z,6.57
2022-10-18T09:48:54.564Z,6.05
2022-10-18T09:49:57.003Z,12.75
2022-10-18T09:51:54.125Z,8.32
2022-10-18T09:53:02.487Z,3.97
2022-10-18T09:54:11.161Z,4.50
2022-10-18T09:55:22.350Z,4.43
2022-10-18T09:56:25.350Z,8.88
2022-10-18T09:57:25.560Z,5.63
2022-10-18T09:58:26.753Z,4.43
2022-10-18T09:59:23.286Z,5.97
2022-10-18T10:00:32.081Z,4.90
2022-10-18T10:01:33.408Z,10.00
2022-10-18T10:02:30.060Z,7.07
2022-10-18T10:03:26.731Z,4.45
2022-10-18T10:04:23.343Z,4.35
2022-10-18T10:05:20.419Z,4.35
2022-10-18T10:06:21.214Z,4.10
2022-10-18T10:07:32.544Z,5.22
2022-10-18T10:08:33.900Z,3.15
2022-10-18T10:09:44.148Z,3.20
2022-10-18T10:10:47.584Z,5.93
2022-10-18T10:11:47.630Z,3.20
2022-10-18T10:12:45.944Z,2.38
2022-10-18T10:13:42.583Z,5.45
2022-10-18T10:14:45.265Z,6.03
2022-10-18T10:16:00.230Z,4.95
2022-10-18T10:17:05.741Z,3.78
2022-10-18T10:18:20.514Z,4.20
2022-10-18T10:19:33.126Z,5.72
2022-10-18T10:20:44.277Z,2.80
2022-10-18T10:21:40.892Z,3.47
2022-10-18T10:22:40.159Z,2.75
2022-10-18T10:23:52.957Z,2.33
2022-10-18T10:24:50.834Z,2.15
2022-10-18T10:25:56.455Z,3.13
2022-10-18T10:27:00.460Z,3.35
2022-10-18T10:28:22.707Z,4.15
2022-10-18T10:29:47.195Z,7.13
2022-10-18T10:30:44.085Z,3.75
2022-10-18T10:31:40.716Z,3.58
2022-10-18T10:32:47.903Z,7.38
2022-10-18T10:33:47.697Z,4.53
2022-10-18T10:34:45.044Z,4.88
2022-10-18T10:35:53.008Z,2.72
2022-10-18T10:36:53.166Z,3.10
2022-10-18T10:37:54.438Z,7.03
2022-10-18T10:39:07.967Z,3.65
2022-10-18T10:40:19.030Z,3.22
2022-10-18T10:41:22.437Z,4.25
2022-10-18T10:42:19.099Z,6.85
2022-10-18T10:43:44.810Z,2.45
2022-10-18T10:44:55.112Z,3.15
2022-10-18T10:45:57.802Z,2.85
2022-10-18T10:46:55.184Z,2.03
2022-10-18T10:47:55.816Z,3.10
2022-10-18T10:49:15.318Z,1.73
2022-10-18T10:50:14.055Z,4.07
2022-10-18T10:51:11.648Z,2.80
2022-10-18T10:52:27.395Z,4.95
2022-10-18T10:53:35.897Z,1.83
2022-10-18T10:54:37.299Z,2.88
2022-10-18T10:55:35.917Z,2.95
2022-10-18T10:56:36.162Z,3.03
2022-10-18T10:57:33.155Z,3.80
2022-10-18T10:58:36.654Z,4.35
2022-10-18T10:59:44.802Z,2.65
2022-10-18T11:00:44.438Z,2.80
2022-10-18T11:01:41.983Z,3.85
2022-10-18T11:02:39.511Z,2.22
2022-10-18T11:03:36.322Z,2.03
2022-10-18T11:04:33.106Z,2.95
2022-10-18T11:05:29.830Z,4.60
2022-10-18T11:06:50.240Z,3.53
2022-10-18T11:07:47.938Z,3.72
2022-10-18T11:10:09.727Z,7.63
2022-10-18T11:11:28.595Z,2.67
2022-10-18T11:12:39.825Z,2.40
2022-10-18T11:14:25.640Z,3.63
2022-10-18T11:15:32.897Z,1.88
2022-10-18T11:16:56.952Z,1.70
2022-10-18T11:18:02.701Z,1.98
2022-10-18T11:19:04.037Z,3.13
2022-10-18T11:20:23.765Z,2.05
2022-10-18T11:21:26.618Z,1.65
2022-10-18T11:22:25.950Z,4.30
2022-10-18T11:23:29.143Z,5.13
2022-10-18T11:24:25.882Z,3.22
2022-10-18T11:25:26.023Z,2.10
2022-10-18T11:26:25.579Z,2.58
2022-10-18T11:27:30.421Z,3.42
2022-10-18T11:28:36.187Z,4.45
2022-10-18T11:29:44.837Z,3.85
2022-10-18T11:31:22.882Z,4.22
2022-10-18T11:32:31.429Z,3.00
2022-10-18T11:34:08.120Z,5.03
2022-10-18T11:35:22.684Z,2.30
2022-10-18T11:36:30.605Z,6.35
2022-10-18T11:37:40.864Z,2.30
2022-10-18T11:38:43.160Z,1.98
2022-10-18T11:39:42.655Z,1.85
2022-10-18T11:40:55.475Z,2.30
2022-10-18T11:42:01.572Z,5.20
2022-10-18T11:42:58.116Z,3.95
2022-10-18T11:44:03.632Z,1.80
2022-10-18T11:45:19.322Z,1.55
2022-10-18T11:46:40.062Z,4.70
2022-10-18T11:48:12.542Z,2.90
2022-10-18T11:49:11.713Z,1.20
2022-10-18T11:50:20.475Z,1.50
2022-10-18T11:51:34.040Z,1.10
2022-10-18T11:52:53.839Z,3.85
2022-10-18T11:54:03.084Z,1.13
2022-10-18T11:55:53.421Z,1.40
2022-10-18T11:56:58.749Z,3.80
2022-10-18T11:58:10.049Z,3.45
2022-10-18T11:59:29.096Z,2.30
2022-10-18T12:00:50.464Z,3.17
2022-10-18T12:02:03.416Z,1.60
2022-10-18T12:03:29.241Z,4.50
2022-10-18T12:04:33.943Z,5.00
2022-10-18T12:05:32.591Z,2.05
2022-10-18T12:06:42.239Z,4.57
2022-10-18T12:08:21.571Z,1.38
2022-10-18T12:09:31.529Z,1.75
2022-10-18T12:10:52.830Z,4.03
2022-10-18T12:12:07.902Z,3.88
2022-10-18T12:13:08.169Z,2.17
2022-10-18T12:14:13.830Z,2.35
2022-10-18T12:15:19.187Z,3.90
2022-10-18T12:16:33.559Z,1.60
2022-10-18T12:17:45.108Z,1.13
2022-10-18T12:18:59.134Z,5.68
2022-10-18T12:19:59.386Z,5.70
2022-10-18T12:20:58.458Z,3.17
2022-10-18T12:22:10.635Z,6.25
2022-10-18T12:23:18.719Z,1.30
2022-10-18T12:24:20.552Z,2.42
2022-10-18T12:25:19.090Z,4.20
2022-10-18T12:26:17.308Z,4.90
2022-10-18T12:27:15.942Z,2.40
2022-10-18T12:28:34.294Z,7.55
2022-10-18T12:29:38.260Z,1.92
2022-10-18T12:30:50.598Z,5.03
2022-10-18T12:31:54.200Z,3.63
2022-10-18T12:33:08.703Z,3.45
2022-10-18T12:34:28.538Z,6.55
2022-10-18T12:35:26.706Z,5.75
2022-10-18T12:36:29.067Z,3.33
2022-10-18T12:37:53.066Z,4.38
2022-10-18T12:39:32.261Z,3.45
2022-10-18T12:40:43.696Z,3.95
2022-10-18T12:41:40.465Z,2.28
2022-10-18T12:42:43.859Z,3.05
2022-10-18T12:43:40.557Z,4.68
2022-10-18T12:44:37.158Z,4.80
2022-10-18T12:45:44.114Z,6.43
2022-10-18T12:46:52.797Z,1.20
2022-10-18T12:47:51.364Z,1.92
2022-10-18T12:49:04.788Z,2.10
2022-10-18T12:51:16.342Z,11.40
2022-10-18T12:52:24.972Z,2.10
2022-10-18T12:53:29.735Z,1.85
2022-10-18T12:54:37.495Z,2.25
2022-10-18T12:55:37.767Z,4.15
2022-10-18T12:56:42.613Z,3.35
2022-10-18T12:58:03.777Z,4.50
2022-10-18T12:59:15.853Z,2.60
2022-10-18T13:00:32.417Z,1.83
2022-10-18T13:01:48.969Z,3.30
2022-10-18T13:02:45.758Z,4.28
2022-10-18T13:03:54.568Z,3.85
2022-10-18T13:04:51.451Z,2.38
2022-10-18T13:05:55.541Z,4.18
2022-10-18T13:07:12.646Z,1.20
2022-10-18T13:08:27.314Z,1.10
2022-10-18T13:09:31.491Z,1.58
2022-10-18T13:10:36.269Z,3.00
2022-10-18T13:11:36.093Z,6.28
2022-10-18T13:12:52.916Z,2.53
2022-10-18T13:14:31.296Z,3.05
2022-10-18T13:15:50.198Z,4.38
2022-10-18T13:16:58.048Z,9.98
2022-10-18T13:18:03.091Z,5.70
2022-10-18T13:19:15.079Z,4.97
2022-10-18T13:20:25.503Z,9.25
2022-10-18T13:21:51.125Z,6.63
2022-10-18T13:23:01.369Z,1.20
2022-10-18T13:24:10.056Z,1.83
2022-10-18T13:25:32.730Z,2.35
2022-10-18T13:27:31.503Z,3.22
2022-10-18T13:28:48.077Z,13.95
2022-10-18T13:29:44.628Z,7.97
2022-10-18T13:30:47.957Z,3.53
2022-10-18T13:32:04.719Z,5.38
2022-10-18T13:33:23.097Z,11.25
2022-10-18T13:34:28.098Z,3.25
2022-10-18T13:35:45.914Z,4.15
2022-10-18T13:36:43.020Z,3.45
2022-10-18T13:37:39.647Z,2.75
2022-10-18T13:38:58.490Z,1.00
2022-10-18T13:40:23.025Z,1.58
2022-10-18T13:42:31.227Z,2.72
2022-10-18T13:44:03.253Z,0.90
2022-10-18T13:45:31.016Z,3.08
2022-10-18T13:46:33.374Z,1.60
2022-10-18T13:47:37.685Z,1.50
2022-10-18T13:48:34.240Z,0.82
2022-10-18T13:49:48.410Z,1.40
2022-10-18T13:50:48.022Z,2.03
2022-10-18T13:51:59.509Z,1.63
2022-10-18T13:53:19.337Z,3.78
2022-10-18T13:54:34.605Z,5.95